sensor_id;sensor_type;location;lat;lon;timestamp;P1;durP1;ratioP1;P2;durP2;ratioP2
12770;SDS011;6449;47.666;9.160;2023-04-27T00:01:17;5.03;;;4.17;;
12770;SDS011;6449;47.666;9.160;2023-04-27T00:06:10;5.10;;;4.60;;
12770;SDS011;6449;47.666;9.160;2023-04-27T00:11:04;4.90;;;4.50;;
12770;SDS011;6449;47.666;9.160;2023-04-27T00:15:58;7.13;;;4.30;;
12770;SDS011;6449;47.666;9.160;2023-04-27T00:20:55;6.63;;;4.40;;
12770;SDS011;6449;47.666;9.160;2023-04-27T00:25:49;4.80;;;4.00;;
12770;SDS011;6449;47.666;9.160;2023-04-27T00:30:42;4.53;;;4.07;;
12770;SDS011;6449;47.666;9.160;2023-04-27T00:35:36;5.67;;;4.57;;
12770;SDS011;6449;47.666;9.160;2023-04-27T00:40:31;5.73;;;4.20;;
12770;SDS011;6449;47.666;9.160;2023-04-27T00:45:24;4.83;;;4.33;;
12770;SDS011;6449;47.666;9.160;2023-04-27T00:50:18;5.07;;;4.60;;
12770;SDS011;6449;47.666;9.160;2023-04-27T00:55:20;7.43;;;4.47;;
12770;SDS011;6449;47.666;9.160;2023-04-27T01:00:15;5.30;;;3.70;;
12770;SDS011;6449;47.666;9.160;2023-04-27T01:05:08;4.50;;;4.10;;
12770;SDS011;6449;47.666;9.160;2023-04-27T01:10:03;4.70;;;4.20;;
12770;SDS011;6449;47.666;9.160;2023-04-27T01:14:57;5.23;;;4.10;;
12770;SDS011;6449;47.666;9.160;2023-04-27T01:19:52;6.00;;;4.80;;
12770;SDS011;6449;47.666;9.160;2023-04-27T01:24:48;4.57;;;4.07;;
12770;SDS011;6449;47.666;9.160;2023-04-27T01:29:42;4.40;;;4.00;;
12770;SDS011;6449;47.666;9.160;2023-04-27T01:34:35;5.17;;;4.30;;
12770;SDS011;6449;47.666;9.160;2023-04-27T01:39:28;5.10;;;4.60;;
12770;SDS011;6449;47.666;9.160;2023-04-27T01:44:23;5.10;;;4.60;;
12770;SDS011;6449;47.666;9.160;2023-04-27T01:49:17;4.90;;;4.40;;
12770;SDS011;6449;47.666;9.160;2023-04-27T01:54:10;5.47;;;4.97;;
12770;SDS011;6449;47.666;9.160;2023-04-27T01:59:04;5.20;;;4.70;;
12770;SDS011;6449;47.666;9.160;2023-04-27T02:03:59;5.23;;;4.77;;
12770;SDS011;6449;47.666;9.160;2023-04-27T02:08:54;5.17;;;4.63;;
12770;SDS011;6449;47.666;9.160;2023-04-27T02:13:48;6.30;;;4.67;;
12770;SDS011;6449;47.666;9.160;2023-04-27T02:18:41;7.87;;;4.70;;
12770;SDS011;6449;47.666;9.160;2023-04-27T02:23:36;6.80;;;4.47;;
12770;SDS011;6449;47.666;9.160;2023-04-27T02:28:30;5.60;;;4.67;;
12770;SDS011;6449;47.666;9.160;2023-04-27T02:33:24;5.10;;;4.50;;
12770;SDS011;6449;47.666;9.160;2023-04-27T02:38:17;5.10;;;4.60;;
12770;SDS011;6449;47.666;9.160;2023-04-27T02:43:12;5.63;;;4.40;;
12770;SDS011;6449;47.666;9.160;2023-04-27T02:48:05;5.13;;;4.50;;
12770;SDS011;6449;47.666;9.160;2023-04-27T02:52:59;4.47;;;4.00;;
12770;SDS011;6449;47.666;9.160;2023-04-27T02:57:53;4.90;;;3.97;;
12770;SDS011;6449;47.666;9.160;2023-04-27T03:02:47;4.83;;;4.40;;
12770;SDS011;6449;47.666;9.160;2023-04-27T03:07:41;6.87;;;4.47;;
12770;SDS011;6449;47.666;9.160;2023-04-27T03:12:34;4.73;;;4.17;;
12770;SDS011;6449;47.666;9.160;2023-04-27T03:17:28;6.20;;;4.33;;
12770;SDS011;6449;47.666;9.160;2023-04-27T03:22:23;6.13;;;4.20;;
12770;SDS011;6449;47.666;9.160;2023-04-27T03:27:17;5.33;;;4.30;;
12770;SDS011;6449;47.666;9.160;2023-04-27T03:32:10;6.27;;;4.10;;
12770;SDS011;6449;47.666;9.160;2023-04-27T03:37:03;4.50;;;3.87;;
12770;SDS011;6449;47.666;9.160;2023-04-27T03:41:58;8.17;;;4.10;;
12770;SDS011;6449;47.666;9.160;2023-04-27T03:46:53;4.43;;;4.03;;
12770;SDS011;6449;47.666;9.160;2023-04-27T03:51:47;4.57;;;4.10;;
12770;SDS011;6449;47.666;9.160;2023-04-27T03:56:40;4.10;;;3.70;;
12770;SDS011;6449;47.666;9.160;2023-04-27T04:01:36;5.80;;;4.50;;
12770;SDS011;6449;47.666;9.160;2023-04-27T04:06:30;7.50;;;4.20;;
12770;SDS011;6449;47.666;9.160;2023-04-27T04:11:23;5.47;;;4.40;;
12770;SDS011;6449;47.666;9.160;2023-04-27T04:16:17;4.93;;;4.20;;
12770;SDS011;6449;47.666;9.160;2023-04-27T04:21:12;4.67;;;4.27;;
12770;SDS011;6449;47.666;9.160;2023-04-27T04:26:06;4.73;;;4.33;;
12770;SDS011;6449;47.666;9.160;2023-04-27T04:31:00;5.80;;;4.70;;
12770;SDS011;6449;47.666;9.160;2023-04-27T04:35:56;5.37;;;4.87;;
12770;SDS011;6449;47.666;9.160;2023-04-27T04:40:50;5.37;;;4.87;;
12770;SDS011;6449;47.666;9.160;2023-04-27T04:45:44;4.93;;;4.43;;
12770;SDS011;6449;47.666;9.160;2023-04-27T04:50:38;5.77;;;4.60;;
12770;SDS011;6449;47.666;9.160;2023-04-27T04:55:32;6.30;;;4.90;;
12770;SDS011;6449;47.666;9.160;2023-04-27T05:00:27;5.00;;;4.50;;
12770;SDS011;6449;47.666;9.160;2023-04-27T05:05:21;6.80;;;5.13;;
12770;SDS011;6449;47.666;9.160;2023-04-27T05:10:14;6.27;;;5.47;;
12770;SDS011;6449;47.666;9.160;2023-04-27T05:15:08;8.53;;;5.20;;
12770;SDS011;6449;47.666;9.160;2023-04-27T05:20:04;6.87;;;4.90;;
12770;SDS011;6449;47.666;9.160;2023-04-27T05:24:59;7.43;;;4.80;;
12770;SDS011;6449;47.666;9.160;2023-04-27T05:29:54;5.27;;;4.70;;
12770;SDS011;6449;47.666;9.160;2023-04-27T05:34:47;5.67;;;4.67;;
12770;SDS011;6449;47.666;9.160;2023-04-27T05:39:42;6.17;;;4.90;;
12770;SDS011;6449;47.666;9.160;2023-04-27T05:44:36;6.77;;;5.17;;
12770;SDS011;6449;47.666;9.160;2023-04-27T05:49:29;5.97;;;5.10;;
12770;SDS011;6449;47.666;9.160;2023-04-27T05:54:22;7.00;;;5.80;;
12770;SDS011;6449;47.666;9.160;2023-04-27T05:59:17;5.87;;;5.27;;
12770;SDS011;6449;47.666;9.160;2023-04-27T06:04:12;8.37;;;5.40;;
12770;SDS011;6449;47.666;9.160;2023-04-27T06:09:05;8.80;;;5.93;;
12770;SDS011;6449;47.666;9.160;2023-04-27T06:13:59;6.67;;;5.97;;
12770;SDS011;6449;47.666;9.160;2023-04-27T06:18:54;8.50;;;5.40;;
12770;SDS011;6449;47.666;9.160;2023-04-27T06:23:47;7.73;;;5.47;;
12770;SDS011;6449;47.666;9.160;2023-04-27T06:28:41;10.23;;;6.80;;
12770;SDS011;6449;47.666;9.160;2023-04-27T06:33:34;9.30;;;6.70;;
12770;SDS011;6449;47.666;9.160;2023-04-27T06:38:29;8.83;;;6.83;;
12770;SDS011;6449;47.666;9.160;2023-04-27T06:43:22;7.30;;;5.93;;
12770;SDS011;6449;47.666;9.160;2023-04-27T06:48:16;7.87;;;6.33;;
12770;SDS011;6449;47.666;9.160;2023-04-27T06:53:09;8.40;;;6.73;;
12770;SDS011;6449;47.666;9.160;2023-04-27T06:58:04;6.83;;;5.80;;
12770;SDS011;6449;47.666;9.160;2023-04-27T07:02:58;8.93;;;6.30;;
12770;SDS011;6449;47.666;9.160;2023-04-27T07:07:52;7.80;;;5.97;;
12770;SDS011;6449;47.666;9.160;2023-04-27T07:12:46;6.97;;;5.83;;
12770;SDS011;6449;47.666;9.160;2023-04-27T07:17:44;9.20;;;6.23;;
12770;SDS011;6449;47.666;9.160;2023-04-27T07:22:37;7.80;;;6.30;;
12770;SDS011;6449;47.666;9.160;2023-04-27T07:27:31;7.70;;;6.10;;
12770;SDS011;6449;47.666;9.160;2023-04-27T07:32:26;6.37;;;5.70;;
12770;SDS011;6449;47.666;9.160;2023-04-27T07:37:20;5.77;;;5.27;;
12770;SDS011;6449;47.666;9.160;2023-04-27T07:42:14;7.73;;;6.13;;
12770;SDS011;6449;47.666;9.160;2023-04-27T07:47:08;9.23;;;6.70;;
12770;SDS011;6449;47.666;9.160;2023-04-27T07:52:03;7.27;;;5.60;;
12770;SDS011;6449;47.666;9.160;2023-04-27T07:56:58;7.13;;;6.43;;
12770;SDS011;6449;47.666;9.160;2023-04-27T08:01:52;6.93;;;6.23;;
12770;SDS011;6449;47.666;9.160;2023-04-27T08:07:01;7.00;;;6.30;;
12770;SDS011;6449;47.666;9.160;2023-04-27T08:11:56;6.83;;;6.13;;
12770;SDS011;6449;47.666;9.160;2023-04-27T08:16:51;6.97;;;6.20;;
12770;SDS011;6449;47.666;9.160;2023-04-27T08:21:44;8.30;;;6.90;;
12770;SDS011;6449;47.666;9.160;2023-04-27T08:26:39;9.23;;;6.47;;
12770;SDS011;6449;47.666;9.160;2023-04-27T08:31:32;7.70;;;6.37;;
12770;SDS011;6449;47.666;9.160;2023-04-27T08:36:27;7.63;;;5.97;;
12770;SDS011;6449;47.666;9.160;2023-04-27T08:41:23;6.60;;;6.00;;
12770;SDS011;6449;47.666;9.160;2023-04-27T08:46:17;6.53;;;5.83;;
12770;SDS011;6449;47.666;9.160;2023-04-27T08:51:11;7.60;;;6.00;;
12770;SDS011;6449;47.666;9.160;2023-04-27T08:56:08;8.47;;;6.80;;
12770;SDS011;6449;47.666;9.160;2023-04-27T09:01:03;7.60;;;6.13;;
12770;SDS011;6449;47.666;9.160;2023-04-27T09:05:58;7.70;;;6.50;;
12770;SDS011;6449;47.666;9.160;2023-04-27T09:10:56;6.60;;;5.90;;
12770;SDS011;6449;47.666;9.160;2023-04-27T09:15:51;7.47;;;6.67;;
12770;SDS011;6449;47.666;9.160;2023-04-27T09:20:44;7.17;;;5.93;;
12770;SDS011;6449;47.666;9.160;2023-04-27T09:25:39;6.45;;;5.85;;
12770;SDS011;6449;47.666;9.160;2023-04-27T09:30:33;6.53;;;5.30;;
12770;SDS011;6449;47.666;9.160;2023-04-27T09:35:30;5.85;;;5.07;;
12770;SDS011;6449;47.666;9.160;2023-04-27T09:40:25;6.77;;;5.70;;
12770;SDS011;6449;47.666;9.160;2023-04-27T09:45:22;8.30;;;5.90;;
12770;SDS011;6449;47.666;9.160;2023-04-27T09:50:16;7.85;;;6.18;;
12770;SDS011;6449;47.666;9.160;2023-04-27T09:55:12;6.80;;;5.45;;
12770;SDS011;6449;47.666;9.160;2023-04-27T10:00:12;7.38;;;5.72;;
12770;SDS011;6449;47.666;9.160;2023-04-27T10:05:29;7.85;;;6.13;;
12770;SDS011;6449;47.666;9.160;2023-04-27T10:10:45;6.00;;;5.43;;
12770;SDS011;6449;47.666;9.160;2023-04-27T10:15:40;6.32;;;5.38;;
12770;SDS011;6449;47.666;9.160;2023-04-27T10:20:34;6.00;;;5.43;;
12770;SDS011;6449;47.666;9.160;2023-04-27T10:25:29;5.93;;;5.32;;
12770;SDS011;6449;47.666;9.160;2023-04-27T10:30:32;6.78;;;5.85;;
12770;SDS011;6449;47.666;9.160;2023-04-27T10:35:31;6.78;;;6.07;;
12770;SDS011;6449;47.666;9.160;2023-04-27T10:40:31;6.35;;;5.75;;
12770;SDS011;6449;47.666;9.160;2023-04-27T10:45:25;7.15;;;5.95;;
12770;SDS011;6449;47.666;9.160;2023-04-27T10:50:23;7.97;;;5.90;;
12770;SDS011;6449;47.666;9.160;2023-04-27T10:55:18;6.93;;;6.22;;
12770;SDS011;6449;47.666;9.160;2023-04-27T11:00:14;6.63;;;5.35;;
12770;SDS011;6449;47.666;9.160;2023-04-27T11:05:16;5.97;;;5.38;;
12770;SDS011;6449;47.666;9.160;2023-04-27T11:10:15;7.32;;;5.45;;
12770;SDS011;6449;47.666;9.160;2023-04-27T11:15:10;6.32;;;5.47;;
12770;SDS011;6449;47.666;9.160;2023-04-27T11:20:04;6.97;;;5.32;;
12770;SDS011;6449;47.666;9.160;2023-04-27T11:25:00;5.75;;;4.10;;
12770;SDS011;6449;47.666;9.160;2023-04-27T11:29:56;3.83;;;3.10;;
12770;SDS011;6449;47.666;9.160;2023-04-27T11:34:49;3.40;;;3.10;;
12770;SDS011;6449;47.666;9.160;2023-04-27T11:39:46;4.28;;;2.92;;
12770;SDS011;6449;47.666;9.160;2023-04-27T11:44:40;3.20;;;2.80;;
12770;SDS011;6449;47.666;9.160;2023-04-27T11:49:35;3.58;;;2.60;;
12770;SDS011;6449;47.666;9.160;2023-04-27T11:54:29;3.67;;;2.90;;
12770;SDS011;6449;47.666;9.160;2023-04-27T11:59:22;2.63;;;2.42;;
12770;SDS011;6449;47.666;9.160;2023-04-27T12:04:17;3.33;;;2.30;;
12770;SDS011;6449;47.666;9.160;2023-04-27T12:09:14;5.28;;;2.20;;
12770;SDS011;6449;47.666;9.160;2023-04-27T12:14:07;4.90;;;2.40;;
12770;SDS011;6449;47.666;9.160;2023-04-27T12:19:01;3.83;;;2.97;;
12770;SDS011;6449;47.666;9.160;2023-04-27T12:23:55;2.40;;;2.20;;
12770;SDS011;6449;47.666;9.160;2023-04-27T12:28:50;2.58;;;1.98;;
12770;SDS011;6449;47.666;9.160;2023-04-27T12:33:43;2.50;;;2.30;;
12770;SDS011;6449;47.666;9.160;2023-04-27T12:38:42;3.97;;;2.65;;
12770;SDS011;6449;47.666;9.160;2023-04-27T12:44:31;2.50;;;2.30;;
12770;SDS011;6449;47.666;9.160;2023-04-27T12:49:24;3.15;;;1.83;;
12770;SDS011;6449;47.666;9.160;2023-04-27T12:54:18;3.33;;;2.03;;
12770;SDS011;6449;47.666;9.160;2023-04-27T12:59:58;4.38;;;2.20;;
12770;SDS011;6449;47.666;9.160;2023-04-27T13:04:52;2.97;;;1.90;;
12770;SDS011;6449;47.666;9.160;2023-04-27T13:09:47;2.10;;;1.77;;
12770;SDS011;6449;47.666;9.160;2023-04-27T13:14:44;2.20;;;2.00;;
12770;SDS011;6449;47.666;9.160;2023-04-27T13:19:54;2.97;;;2.10;;
12770;SDS011;6449;47.666;9.160;2023-04-27T13:24:50;3.15;;;2.22;;
12770;SDS011;6449;47.666;9.160;2023-04-27T13:29:43;3.47;;;2.25;;
12770;SDS011;6449;47.666;9.160;2023-04-27T13:34:39;2.00;;;1.90;;
12770;SDS011;6449;47.666;9.160;2023-04-27T13:39:34;1.67;;;1.40;;
12770;SDS011;6449;47.666;9.160;2023-04-27T13:44:28;1.90;;;1.70;;
12770;SDS011;6449;47.666;9.160;2023-04-27T13:49:22;1.75;;;1.40;;
12770;SDS011;6449;47.666;9.160;2023-04-27T13:54:16;2.08;;;1.50;;
12770;SDS011;6449;47.666;9.160;2023-04-27T13:59:11;2.35;;;1.15;;
12770;SDS011;6449;47.666;9.160;2023-04-27T14:04:06;2.10;;;1.17;;
12770;SDS011;6449;47.666;9.160;2023-04-27T14:09:00;1.25;;;1.15;;
12770;SDS011;6449;47.666;9.160;2023-04-27T14:13:54;1.45;;;1.15;;
12770;SDS011;6449;47.666;9.160;2023-04-27T14:18:49;1.48;;;1.27;;
12770;SDS011;6449;47.666;9.160;2023-04-27T14:23:43;1.40;;;1.30;;
12770;SDS011;6449;47.666;9.160;2023-04-27T14:28:36;2.15;;;1.27;;
12770;SDS011;6449;47.666;9.160;2023-04-27T14:33:30;1.30;;;1.20;;
12770;SDS011;6449;47.666;9.160;2023-04-27T14:38:25;1.90;;;1.35;;
12770;SDS011;6449;47.666;9.160;2023-04-27T14:43:18;2.63;;;1.40;;
12770;SDS011;6449;47.666;9.160;2023-04-27T14:48:12;2.65;;;1.42;;
12770;SDS011;6449;47.666;9.160;2023-04-27T14:53:05;3.38;;;1.55;;
12770;SDS011;6449;47.666;9.160;2023-04-27T14:58:00;1.52;;;1.35;;
12770;SDS011;6449;47.666;9.160;2023-04-27T15:02:54;1.50;;;1.40;;
12770;SDS011;6449;47.666;9.160;2023-04-27T15:07:47;1.40;;;1.30;;
12770;SDS011;6449;47.666;9.160;2023-04-27T15:12:50;1.65;;;1.30;;
12770;SDS011;6449;47.666;9.160;2023-04-27T15:17:46;1.33;;;1.20;;
12770;SDS011;6449;47.666;9.160;2023-04-27T15:22:39;1.48;;;1.38;;
12770;SDS011;6449;47.666;9.160;2023-04-27T15:27:33;1.65;;;1.40;;
12770;SDS011;6449;47.666;9.160;2023-04-27T15:32:27;2.50;;;1.58;;
12770;SDS011;6449;47.666;9.160;2023-04-27T15:37:22;1.85;;;1.30;;
12770;SDS011;6449;47.666;9.160;2023-04-27T15:42:15;1.40;;;1.30;;
12770;SDS011;6449;47.666;9.160;2023-04-27T15:47:09;1.45;;;1.35;;
12770;SDS011;6449;47.666;9.160;2023-04-27T15:52:05;1.85;;;1.23;;
12770;SDS011;6449;47.666;9.160;2023-04-27T15:57:00;1.27;;;1.13;;
12770;SDS011;6449;47.666;9.160;2023-04-27T16:01:54;1.75;;;1.40;;
12770;SDS011;6449;47.666;9.160;2023-04-27T16:06:48;1.92;;;1.35;;
12770;SDS011;6449;47.666;9.160;2023-04-27T16:11:41;2.03;;;1.35;;
12770;SDS011;6449;47.666;9.160;2023-04-27T16:16:36;2.58;;;1.50;;
12770;SDS011;6449;47.666;9.160;2023-04-27T16:21:30;1.67;;;1.50;;
12770;SDS011;6449;47.666;9.160;2023-04-27T16:26:24;1.55;;;1.33;;
12770;SDS011;6449;47.666;9.160;2023-04-27T16:31:18;1.92;;;1.50;;
12770;SDS011;6449;47.666;9.160;2023-04-27T16:36:13;1.50;;;1.40;;
12770;SDS011;6449;47.666;9.160;2023-04-27T16:41:07;2.00;;;1.60;;
12770;SDS011;6449;47.666;9.160;2023-04-27T16:46:00;2.10;;;1.90;;
12770;SDS011;6449;47.666;9.160;2023-04-27T16:50:54;1.60;;;1.50;;
12770;SDS011;6449;47.666;9.160;2023-04-27T16:55:52;2.88;;;1.55;;
12770;SDS011;6449;47.666;9.160;2023-04-27T17:00:46;2.00;;;1.60;;
12770;SDS011;6449;47.666;9.160;2023-04-27T17:05:39;1.83;;;1.63;;
12770;SDS011;6449;47.666;9.160;2023-04-27T17:10:32;1.77;;;1.33;;
12770;SDS011;6449;47.666;9.160;2023-04-27T17:15:28;1.17;;;1.08;;
12770;SDS011;6449;47.666;9.160;2023-04-27T17:20:22;1.33;;;1.10;;
12770;SDS011;6449;47.666;9.160;2023-04-27T17:25:16;1.50;;;1.40;;
12770;SDS011;6449;47.666;9.160;2023-04-27T17:30:12;3.10;;;2.00;;
12770;SDS011;6449;47.666;9.160;2023-04-27T17:35:08;2.50;;;2.13;;
12770;SDS011;6449;47.666;9.160;2023-04-27T17:40:02;2.10;;;1.77;;
12770;SDS011;6449;47.666;9.160;2023-04-27T17:44:58;2.22;;;1.70;;
12770;SDS011;6449;47.666;9.160;2023-04-27T17:49:51;2.58;;;1.83;;
12770;SDS011;6449;47.666;9.160;2023-04-27T17:54:46;2.45;;;1.80;;
12770;SDS011;6449;47.666;9.160;2023-04-27T17:59:39;3.05;;;1.80;;
12770;SDS011;6449;47.666;9.160;2023-04-27T18:04:33;2.20;;;2.00;;
12770;SDS011;6449;47.666;9.160;2023-04-27T18:09:26;1.45;;;1.35;;
12770;SDS011;6449;47.666;9.160;2023-04-27T18:14:24;2.25;;;1.70;;
12770;SDS011;6449;47.666;9.160;2023-04-27T18:19:18;1.95;;;1.70;;
12770;SDS011;6449;47.666;9.160;2023-04-27T18:24:11;3.78;;;1.95;;
12770;SDS011;6449;47.666;9.160;2023-04-27T18:29:05;5.88;;;2.60;;
12770;SDS011;6449;47.666;9.160;2023-04-27T18:34:03;2.65;;;2.20;;
12770;SDS011;6449;47.666;9.160;2023-04-27T18:38:56;4.15;;;2.75;;
12770;SDS011;6449;47.666;9.160;2023-04-27T18:43:50;2.90;;;2.60;;
12770;SDS011;6449;47.666;9.160;2023-04-27T18:48:43;3.30;;;2.88;;
12770;SDS011;6449;47.666;9.160;2023-04-27T18:53:38;6.07;;;3.05;;
12770;SDS011;6449;47.666;9.160;2023-04-27T18:58:31;7.22;;;2.90;;
12770;SDS011;6449;47.666;9.160;2023-04-27T19:03:25;5.68;;;3.25;;
12770;SDS011;6449;47.666;9.160;2023-04-27T19:08:18;4.45;;;3.33;;
12770;SDS011;6449;47.666;9.160;2023-04-27T19:13:13;4.15;;;3.15;;
12770;SDS011;6449;47.666;9.160;2023-04-27T19:18:07;3.88;;;2.42;;
12770;SDS011;6449;47.666;9.160;2023-04-27T19:23:02;3.92;;;2.42;;
12770;SDS011;6449;47.666;9.160;2023-04-27T19:27:56;3.25;;;2.90;;
12770;SDS011;6449;47.666;9.160;2023-04-27T19:32:51;6.38;;;2.97;;
12770;SDS011;6449;47.666;9.160;2023-04-27T19:37:44;5.00;;;2.90;;
12770;SDS011;6449;47.666;9.160;2023-04-27T19:42:38;4.57;;;3.90;;
12770;SDS011;6449;47.666;9.160;2023-04-27T19:47:34;7.13;;;6.00;;
12770;SDS011;6449;47.666;9.160;2023-04-27T19:52:29;5.80;;;5.18;;
12770;SDS011;6449;47.666;9.160;2023-04-27T19:57:22;8.43;;;5.63;;
12770;SDS011;6449;47.666;9.160;2023-04-27T20:02:16;9.82;;;7.25;;
12770;SDS011;6449;47.666;9.160;2023-04-27T20:07:09;8.10;;;6.80;;
12770;SDS011;6449;47.666;9.160;2023-04-27T20:12:05;6.57;;;5.22;;
12770;SDS011;6449;47.666;9.160;2023-04-27T20:17:14;6.10;;;4.75;;
12770;SDS011;6449;47.666;9.160;2023-04-27T20:22:08;5.25;;;4.35;;
12770;SDS011;6449;47.666;9.160;2023-04-27T20:27:02;4.40;;;4.00;;
12770;SDS011;6449;47.666;9.160;2023-04-27T20:31:57;5.15;;;3.83;;
12770;SDS011;6449;47.666;9.160;2023-04-27T20:36:51;3.47;;;3.17;;
12770;SDS011;6449;47.666;9.160;2023-04-27T20:41:45;4.22;;;3.83;;
12770;SDS011;6449;47.666;9.160;2023-04-27T20:46:39;4.72;;;3.70;;
12770;SDS011;6449;47.666;9.160;2023-04-27T20:51:34;5.05;;;3.95;;
12770;SDS011;6449;47.666;9.160;2023-04-27T20:56:30;3.92;;;3.50;;
12770;SDS011;6449;47.666;9.160;2023-04-27T21:01:23;4.55;;;3.75;;
12770;SDS011;6449;47.666;9.160;2023-04-27T21:06:17;5.60;;;3.90;;
12770;SDS011;6449;47.666;9.160;2023-04-27T21:11:12;5.65;;;3.50;;
12770;SDS011;6449;47.666;9.160;2023-04-27T21:16:08;7.03;;;3.90;;
12770;SDS011;6449;47.666;9.160;2023-04-27T21:21:01;3.90;;;3.50;;
12770;SDS011;6449;47.666;9.160;2023-04-27T21:25:55;3.72;;;3.28;;
12770;SDS011;6449;47.666;9.160;2023-04-27T21:30:50;5.60;;;3.57;;
12770;SDS011;6449;47.666;9.160;2023-04-27T21:35:43;6.60;;;3.23;;
12770;SDS011;6449;47.666;9.160;2023-04-27T21:40:37;3.50;;;3.20;;
12770;SDS011;6449;47.666;9.160;2023-04-27T21:45:30;4.33;;;3.40;;
12770;SDS011;6449;47.666;9.160;2023-04-27T21:50:25;4.43;;;3.20;;
12770;SDS011;6449;47.666;9.160;2023-04-27T21:55:19;3.63;;;3.10;;
12770;SDS011;6449;47.666;9.160;2023-04-27T22:00:12;3.00;;;2.70;;
12770;SDS011;6449;47.666;9.160;2023-04-27T22:05:08;3.20;;;2.90;;
12770;SDS011;6449;47.666;9.160;2023-04-27T22:10:03;4.20;;;2.93;;
12770;SDS011;6449;47.666;9.160;2023-04-27T22:14:58;4.60;;;3.77;;
12770;SDS011;6449;47.666;9.160;2023-04-27T22:19:51;3.73;;;3.30;;
12770;SDS011;6449;47.666;9.160;2023-04-27T22:24:45;3.93;;;3.53;;
12770;SDS011;6449;47.666;9.160;2023-04-27T22:29:39;5.13;;;3.57;;
12770;SDS011;6449;47.666;9.160;2023-04-27T22:34:33;3.50;;;3.20;;
12770;SDS011;6449;47.666;9.160;2023-04-27T22:39:27;3.63;;;3.20;;
12770;SDS011;6449;47.666;9.160;2023-04-27T22:44:22;3.07;;;2.77;;
12770;SDS011;6449;47.666;9.160;2023-04-27T22:49:17;4.40;;;4.00;;
12770;SDS011;6449;47.666;9.160;2023-04-27T22:54:11;5.10;;;3.53;;
12770;SDS011;6449;47.666;9.160;2023-04-27T22:59:05;4.57;;;4.03;;
12770;SDS011;6449;47.666;9.160;2023-04-27T23:03:58;5.23;;;3.70;;
12770;SDS011;6449;47.666;9.160;2023-04-27T23:08:53;4.20;;;3.80;;
12770;SDS011;6449;47.666;9.160;2023-04-27T23:13:47;6.37;;;3.70;;
12770;SDS011;6449;47.666;9.160;2023-04-27T23:18:41;4.20;;;3.80;;
12770;SDS011;6449;47.666;9.160;2023-04-27T23:23:34;3.90;;;3.60;;
12770;SDS011;6449;47.666;9.160;2023-04-27T23:28:29;4.37;;;3.97;;
12770;SDS011;6449;47.666;9.160;2023-04-27T23:33:22;4.97;;;4.47;;
12770;SDS011;6449;47.666;9.160;2023-04-27T23:38:16;4.70;;;4.20;;
12770;SDS011;6449;47.666;9.160;2023-04-27T23:43:09;4.50;;;4.10;;
12770;SDS011;6449;47.666;9.160;2023-04-27T23:48:05;7.23;;;4.00;;
12770;SDS011;6449;47.666;9.160;2023-04-27T23:52:58;4.80;;;4.03;;
12770;SDS011;6449;47.666;9.160;2023-04-27T23:57:51;4.90;;;4.40;;
